createdAt,value
2022-11-16T00:01:08.899Z,0
2022-11-16T00:06:08.890Z,0
2022-11-16T00:11:08.911Z,0
2022-11-16T00:16:08.874Z,0
2022-11-16T00:21:08.884Z,0
2022-11-16T00:26:08.890Z,0
2022-11-16T00:31:08.909Z,0
2022-11-16T00:36:08.870Z,0
2022-11-16T00:41:08.872Z,0
2022-11-16T00:46:08.896Z,0
2022-11-16T00:51:08.896Z,0
2022-11-16T00:56:08.890Z,0
2022-11-16T01:01:08.942Z,0
2022-11-16T01:06:08.907Z,0
2022-11-16T01:11:08.910Z,0
2022-11-16T01:16:08.886Z,0
2022-11-16T01:21:08.860Z,0
2022-11-16T01:26:08.864Z,0
2022-11-16T01:31:08.927Z,0
2022-11-16T01:36:08.890Z,0
2022-11-16T01:41:08.884Z,0
2022-11-16T01:46:08.849Z,0
2022-11-16T01:51:08.930Z,0
2022-11-16T01:56:08.881Z,0
2022-11-16T02:01:08.905Z,0
2022-11-16T02:06:08.879Z,0
2022-11-16T02:11:08.875Z,0
2022-11-16T02:16:08.843Z,0
2022-11-16T02:21:08.867Z,0
2022-11-16T02:26:08.864Z,0
2022-11-16T02:31:08.896Z,0
2022-11-16T02:36:08.879Z,0
2022-11-16T02:41:08.847Z,0
2022-11-16T02:46:08.886Z,0
2022-11-16T02:51:08.890Z,0
2022-11-16T02:56:08.873Z,0
2022-11-16T03:01:08.899Z,0
2022-11-16T03:06:08.843Z,0
2022-11-16T03:11:08.878Z,0
2022-11-16T03:16:08.847Z,0
2022-11-16T03:21:08.863Z,0
2022-11-16T03:26:08.855Z,0
2022-11-16T03:31:08.889Z,0
2022-11-16T03:36:08.829Z,0
2022-11-16T03:41:08.843Z,0
2022-11-16T03:46:08.830Z,0
2022-11-16T03:51:08.879Z,0
2022-11-16T03:56:08.822Z,0
2022-11-16T04:01:08.887Z,0
2022-11-16T04:06:08.823Z,0
2022-11-16T04:11:08.849Z,0
2022-11-16T04:16:08.856Z,0
2022-11-16T04:21:08.846Z,0
2022-11-16T04:26:08.807Z,0
2022-11-16T04:31:08.872Z,0
2022-11-16T04:36:08.853Z,0
2022-11-16T04:41:08.853Z,0
2022-11-16T04:46:08.839Z,0
2022-11-16T04:51:10.259Z,0
2022-11-16T04:56:10.204Z,0
2022-11-16T05:01:10.284Z,0
2022-11-16T05:06:10.196Z,0
2022-11-16T05:11:10.281Z,0
2022-11-16T05:16:10.185Z,0
2022-11-16T05:21:10.213Z,0
2022-11-16T05:26:10.218Z,0
2022-11-16T05:31:10.211Z,0
2022-11-16T05:36:10.203Z,0
2022-11-16T05:41:10.196Z,0
2022-11-16T05:46:10.191Z,0
2022-11-16T05:51:10.237Z,0
2022-11-16T05:56:10.287Z,0
2022-11-16T06:01:10.184Z,0
2022-11-16T06:06:10.211Z,0
2022-11-16T06:11:10.201Z,0
2022-11-16T06:16:11.080Z,0
2022-11-16T06:21:10.166Z,0
2022-11-16T06:26:10.176Z,0
2022-11-16T06:31:10.185Z,0
2022-11-16T06:36:11.037Z,0
2022-11-16T06:41:10.170Z,0
2022-11-16T06:46:10.164Z,0
2022-11-16T06:51:10.157Z,0
2022-11-16T06:56:10.518Z,0
2022-11-16T07:01:10.184Z,0
2022-11-16T07:06:10.189Z,0
2022-11-16T07:11:10.170Z,0
2022-11-16T07:16:10.196Z,0
2022-11-16T07:21:10.184Z,1
2022-11-16T07:26:10.152Z,2
2022-11-16T07:31:10.174Z,2
2022-11-16T07:36:10.396Z,3
2022-11-16T07:41:10.170Z,7
2022-11-16T07:51:10.441Z,7
2022-11-16T07:56:10.634Z,14
2022-11-16T08:01:10.394Z,9
2022-11-16T08:06:11.196Z,10
2022-11-16T08:11:11.160Z,13
2022-11-16T08:16:11.320Z,15
2022-11-16T08:21:11.498Z,13
2022-11-16T08:26:11.167Z,18
2022-11-16T08:31:11.146Z,19
2022-11-16T08:36:14.156Z,22
2022-11-16T08:41:11.153Z,14
2022-11-16T08:46:11.144Z,13
2022-11-16T08:51:19.412Z,14
2022-11-16T08:56:11.269Z,9
2022-11-16T09:01:11.161Z,16
2022-11-16T09:06:11.146Z,13
2022-11-16T09:11:11.160Z,13
2022-11-16T09:16:11.172Z,14
2022-11-16T09:21:11.162Z,20
2022-11-16T09:26:11.160Z,22
2022-11-16T09:31:11.154Z,24
2022-11-16T09:36:11.256Z,22
2022-11-16T09:41:11.137Z,20
2022-11-16T09:46:11.136Z,26
2022-11-16T09:51:11.864Z,35
2022-11-16T09:56:11.989Z,46
2022-11-16T10:01:11.879Z,43
2022-11-16T10:06:11.886Z,63
2022-11-16T10:11:11.850Z,65
2022-11-16T10:16:11.959Z,67
2022-11-16T10:21:11.839Z,60
2022-11-16T10:26:11.860Z,40
2022-11-16T10:31:11.838Z,16
2022-11-16T10:36:11.850Z,14
2022-11-16T10:41:11.853Z,15
2022-11-16T10:46:11.852Z,29
2022-11-16T10:51:11.872Z,61
2022-11-16T10:56:11.957Z,55
2022-11-16T11:01:11.941Z,53
2022-11-16T11:06:11.817Z,59
2022-11-16T11:11:11.865Z,45
2022-11-16T11:16:11.862Z,46
2022-11-16T11:21:11.861Z,27
2022-11-16T11:26:11.841Z,18
2022-11-16T11:31:11.828Z,11
2022-11-16T11:36:11.884Z,14
2022-11-16T11:41:11.819Z,20
2022-11-16T11:46:11.821Z,16
2022-11-16T11:51:11.913Z,29
2022-11-16T11:56:11.977Z,20
2022-11-16T12:01:11.829Z,26
2022-11-16T12:06:11.827Z,35
2022-11-16T12:11:11.818Z,76
2022-11-16T12:16:11.960Z,194
2022-11-16T12:21:11.831Z,260
2022-11-16T12:26:11.823Z,285
2022-11-16T12:31:11.817Z,299
2022-11-16T12:36:11.926Z,345
2022-11-16T12:41:11.825Z,223
2022-11-16T12:46:11.832Z,369
2022-11-16T12:51:11.799Z,427
2022-11-16T12:56:11.920Z,429
2022-11-16T13:01:11.820Z,309
2022-11-16T13:06:11.823Z,265
2022-11-16T13:11:11.837Z,453
2022-11-16T13:16:11.840Z,193
2022-11-16T13:21:11.804Z,401
2022-11-16T13:26:11.820Z,404
2022-11-16T13:31:11.809Z,334
2022-11-16T13:36:11.940Z,209
2022-11-16T13:41:11.839Z,163
2022-11-16T13:46:22.465Z,137
2022-11-16T13:51:11.792Z,116
2022-11-16T13:56:11.911Z,94
2022-11-16T14:01:11.862Z,85
2022-11-16T14:06:11.819Z,87
2022-11-16T14:11:11.811Z,77
2022-11-16T14:16:11.976Z,82
2022-11-16T14:21:11.824Z,99
2022-11-16T14:26:11.807Z,83
2022-11-16T14:31:11.810Z,62
2022-11-16T14:36:11.824Z,54
2022-11-16T14:41:11.814Z,45
2022-11-16T14:46:11.784Z,41
2022-11-16T14:51:11.791Z,43
2022-11-16T14:56:11.917Z,36
2022-11-16T15:01:11.786Z,35
2022-11-16T15:06:11.821Z,28
2022-11-16T15:11:11.776Z,22
2022-11-16T15:16:11.833Z,17
2022-11-16T15:21:11.801Z,18
2022-11-16T15:26:11.805Z,13
2022-11-16T15:31:11.816Z,6
2022-11-16T15:36:11.884Z,0
2022-11-16T15:41:12.595Z,0
2022-11-16T15:46:12.610Z,0
2022-11-16T15:51:12.593Z,0
2022-11-16T15:56:12.661Z,0
2022-11-16T16:01:12.704Z,0
2022-11-16T16:06:12.628Z,0
2022-11-16T16:11:12.608Z,0
2022-11-16T16:16:12.685Z,0
2022-11-16T16:21:12.618Z,0
2022-11-16T16:26:12.609Z,0
2022-11-16T16:31:12.624Z,0
2022-11-16T16:36:12.749Z,0
2022-11-16T16:41:12.612Z,0
2022-11-16T16:46:12.679Z,0
2022-11-16T16:51:12.605Z,0
2022-11-16T16:56:12.720Z,0
2022-11-16T17:01:12.615Z,0
2022-11-16T17:06:12.603Z,0
2022-11-16T17:11:12.588Z,0
2022-11-16T17:16:12.615Z,0
2022-11-16T17:21:12.603Z,0
2022-11-16T17:26:12.580Z,0
2022-11-16T17:31:12.571Z,0
2022-11-16T17:36:12.604Z,0
2022-11-16T17:41:12.605Z,0
2022-11-16T17:46:12.588Z,0
2022-11-16T17:51:12.574Z,0
2022-11-16T17:56:12.728Z,0
2022-11-16T18:01:12.590Z,0
2022-11-16T18:06:12.573Z,0
2022-11-16T18:11:12.577Z,0
2022-11-16T18:16:12.688Z,0
2022-11-16T18:21:15.962Z,0
2022-11-16T18:26:12.593Z,0
2022-11-16T18:31:12.608Z,0
2022-11-16T18:36:12.599Z,0
2022-11-16T18:41:12.569Z,0
2022-11-16T18:46:12.574Z,0
2022-11-16T18:51:12.565Z,0
2022-11-16T18:56:12.685Z,0
2022-11-16T19:01:12.654Z,0
2022-11-16T19:06:12.586Z,0
2022-11-16T19:11:12.582Z,0
2022-11-16T19:16:12.565Z,0
2022-11-16T19:21:12.587Z,0
2022-11-16T19:26:12.567Z,0
2022-11-16T19:31:12.555Z,0
2022-11-16T19:36:12.667Z,0
2022-11-16T19:41:12.572Z,0
2022-11-16T19:46:12.571Z,0
2022-11-16T19:51:12.578Z,0
2022-11-16T19:56:12.624Z,0
2022-11-16T20:01:12.682Z,0
2022-11-16T20:06:12.539Z,0
2022-11-16T20:11:12.524Z,0
2022-11-16T20:16:12.550Z,0
2022-11-16T20:21:12.550Z,0
2022-11-16T20:26:12.529Z,0
2022-11-16T20:31:12.566Z,0
2022-11-16T20:36:12.683Z,0
2022-11-16T20:41:12.518Z,0
2022-11-16T20:46:12.560Z,0
2022-11-16T20:51:12.514Z,0
2022-11-16T20:56:12.580Z,0
2022-11-16T21:01:12.664Z,0
2022-11-16T21:06:12.506Z,0
2022-11-16T21:11:12.508Z,0
2022-11-16T21:16:12.670Z,0
2022-11-16T21:21:12.532Z,0
2022-11-16T21:26:12.551Z,0
2022-11-16T21:31:12.502Z,0
2022-11-16T21:36:12.630Z,0
2022-11-16T21:41:12.543Z,0
2022-11-16T21:46:12.540Z,0
2022-11-16T21:51:12.503Z,0
2022-11-16T21:56:12.564Z,0
2022-11-16T22:01:12.584Z,0
2022-11-16T22:06:12.491Z,0
2022-11-16T22:11:12.524Z,0
2022-11-16T22:16:12.637Z,0
2022-11-16T22:21:12.508Z,0
2022-11-16T22:26:12.499Z,0
2022-11-16T22:31:12.482Z,0
2022-11-16T22:36:12.620Z,0
2022-11-16T22:41:12.501Z,0
2022-11-16T22:46:12.529Z,0
2022-11-16T22:51:12.506Z,0
2022-11-16T22:56:12.541Z,0
2022-11-16T23:01:12.509Z,0
2022-11-16T23:06:12.472Z,0
2022-11-16T23:11:12.482Z,0
2022-11-16T23:16:12.541Z,0
2022-11-16T23:21:12.477Z,0
2022-11-16T23:26:12.482Z,0
2022-11-16T23:31:12.461Z,0
2022-11-16T23:36:12.496Z,0
2022-11-16T23:41:12.504Z,0
2022-11-16T23:46:12.494Z,0
2022-11-16T23:51:12.511Z,0
2022-11-16T23:56:12.605Z,0
